Time;durP1;ratioP1;P1;durP2;ratioP2;P2;SDS_P1;SDS_P2;PMS_P1;PMS_P2;Temp;Humidity;BMP_temperature;BMP_pressure;BME280_temperature;BME280_humidity;BME280_pressure;Samples;Min_cycle;Max_cycle;Signal;HPM_P1;HPM_P2
2021/05/02 00:00:27;;;;;;;13.32;7.10;;;7.00;98.60;;;;;;5081242;28;20036;-61
2021/05/02 00:02:53;;;;;;;9.57;6.40;;;7.00;98.80;;;;;;5075777;28;20031;-61
2021/05/02 00:05:21;;;;;;;11.90;6.57;;;7.10;98.70;;;;;;5081034;28;20097;-61
2021/05/02 00:07:47;;;;;;;12.85;6.25;;;7.00;98.60;;;;;;5079633;28;20051;-61
2021/05/02 00:10:16;;;;;;;12.73;6.45;;;7.00;98.50;;;;;;5080361;28;20441;-61
2021/05/02 00:12:42;;;;;;;14.18;8.73;;;7.00;98.70;;;;;;5077105;28;20036;-61
2021/05/02 00:15:11;;;;;;;14.93;9.23;;;7.00;98.60;;;;;;5077808;28;20638;-61
2021/05/02 00:17:38;;;;;;;15.40;5.60;;;7.00;98.50;;;;;;5076186;28;20434;-61
2021/05/02 00:20:06;;;;;;;9.75;5.80;;;7.00;98.50;;;;;;5086236;28;20040;-61
2021/05/02 00:22:34;;;;;;;12.45;5.13;;;7.00;98.50;;;;;;5077358;28;20048;-61
2021/05/02 00:25:03;;;;;;;10.55;4.80;;;7.00;98.60;;;;;;5084974;27;20502;-61
2021/05/02 00:27:29;;;;;;;15.52;5.15;;;7.00;98.50;;;;;;5074912;28;20034;-61
2021/05/02 00:29:55;;;;;;;10.20;4.63;;;7.00;98.40;;;;;;5082415;28;20040;-61
2021/05/02 00:32:22;;;;;;;6.20;4.32;;;7.00;98.20;;;;;;5090205;28;20113;-61
2021/05/02 00:34:49;;;;;;;10.00;4.65;;;6.90;98.30;;;;;;5080814;28;20036;-61
2021/05/02 00:37:17;;;;;;;10.13;4.72;;;6.90;98.30;;;;;;5085641;28;20050;-61
2021/05/02 00:39:43;;;;;;;9.35;5.28;;;6.90;98.40;;;;;;5076125;28;20472;-61
2021/05/02 00:42:14;;;;;;;11.43;5.15;;;6.90;98.40;;;;;;5079855;28;20404;-61
2021/05/02 00:44:50;;;;;;;10.15;4.43;;;6.90;98.60;;;;;;5085431;28;20500;-61
2021/05/02 00:47:44;;;;;;;12.25;5.05;;;6.90;98.50;;;;;;5083709;28;20051;-61
2021/05/02 00:50:14;;;;;;;11.52;6.03;;;6.90;98.50;;;;;;5069879;28;20101;-61
2021/05/02 00:52:42;;;;;;;8.95;5.68;;;6.90;98.60;;;;;;5084074;28;20047;-61
2021/05/02 00:55:09;;;;;;;10.63;4.82;;;6.90;98.50;;;;;;5076605;28;20055;-61
2021/05/02 00:57:53;;;;;;;10.52;4.55;;;6.90;98.50;;;;;;5085461;28;20467;-61
2021/05/02 01:00:20;;;;;;;10.55;4.32;;;6.90;98.50;;;;;;5071184;28;20046;-61
2021/05/02 01:02:49;;;;;;;11.13;4.65;;;6.90;98.70;;;;;;5093148;28;20548;-61
2021/05/02 01:05:15;;;;;;;16.92;5.65;;;6.90;98.50;;;;;;5071373;28;20048;-61
2021/05/02 01:07:42;;;;;;;11.73;4.53;;;6.80;98.60;;;;;;5089452;28;20683;-61
2021/05/02 01:10:12;;;;;;;10.23;4.15;;;6.80;98.50;;;;;;5071810;28;20048;-61
2021/05/02 01:12:46;;;;;;;12.10;5.05;;;6.90;98.60;;;;;;5083099;28;20430;-61
2021/05/02 01:15:14;;;;;;;13.75;4.45;;;6.90;98.60;;;;;;5074133;28;20032;-61
2021/05/02 01:17:45;;;;;;;10.90;4.50;;;6.80;98.50;;;;;;5083518;28;20115;-61
2021/05/02 01:20:14;;;;;;;13.05;4.70;;;6.80;98.70;;;;;;5076690;28;20039;-61
2021/05/02 01:22:43;;;;;;;11.20;4.32;;;6.80;98.70;;;;;;5075720;28;20056;-61
2021/05/02 01:25:11;;;;;;;11.40;4.70;;;6.70;98.80;;;;;;5074339;28;20078;-61
2021/05/02 01:27:37;;;;;;;14.35;4.70;;;6.70;98.80;;;;;;5085537;28;20137;-61
2021/05/02 01:30:10;;;;;;;12.48;4.20;;;6.70;99.10;;;;;;5075025;28;20051;-61
2021/05/02 01:32:36;;;;;;;12.73;4.70;;;6.70;99.20;;;;;;5083971;28;20044;-61
2021/05/02 01:35:07;;;;;;;10.70;4.05;;;6.60;99.50;;;;;;5076732;28;20050;-61
2021/05/02 01:37:33;;;;;;;13.57;5.90;;;6.60;99.50;;;;;;5090131;28;20398;-61
2021/05/02 01:40:00;;;;;;;9.23;5.35;;;6.60;99.70;;;;;;5084804;28;20518;-61
2021/05/02 01:42:26;;;;;;;10.68;4.78;;;6.60;99.80;;;;;;5074331;28;20038;-61
2021/05/02 01:44:52;;;;;;;14.25;4.75;;;6.60;99.70;;;;;;5085100;28;20051;-61
2021/05/02 01:47:20;;;;;;;13.43;5.07;;;6.60;99.80;;;;;;5071195;28;20028;-61
2021/05/02 01:49:51;;;;;;;15.40;5.05;;;6.60;99.60;;;;;;5080180;28;20036;-61
2021/05/02 01:52:18;;;;;;;11.73;5.15;;;6.60;99.70;;;;;;5071737;28;20036;-61
2021/05/02 01:54:46;;;;;;;11.80;5.68;;;6.60;99.60;;;;;;5076980;28;20119;-61
2021/05/02 01:57:17;;;;;;;12.70;5.05;;;6.60;99.80;;;;;;5071724;28;20048;-61
2021/05/02 01:59:45;;;;;;;10.43;4.25;;;6.60;99.50;;;;;;5078777;28;20046;-61
2021/05/02 02:02:12;;;;;;;10.05;4.90;;;6.60;99.70;;;;;;5070420;28;20041;-62
2021/05/02 02:04:40;;;;;;;10.60;4.13;;;6.60;99.60;;;;;;5080568;28;20122;-61
2021/05/02 02:07:07;;;;;;;11.23;5.13;;;6.60;99.60;;;;;;5073409;28;20044;-61
2021/05/02 02:09:33;;;;;;;13.23;4.68;;;6.60;99.50;;;;;;5084877;28;20043;-61
2021/05/02 02:12:00;;;;;;;8.45;4.18;;;6.60;99.50;;;;;;5069591;28;20393;-62
2021/05/02 02:14:26;;;;;;;9.45;4.45;;;6.60;99.40;;;;;;5080365;28;20427;-62
2021/05/02 02:16:53;;;;;;;13.35;3.95;;;6.60;99.30;;;;;;5077873;28;20040;-62
2021/05/02 02:19:19;;;;;;;9.88;3.92;;;6.60;99.30;;;;;;5080744;28;20036;-62
2021/05/02 02:21:48;;;;;;;13.45;3.97;;;6.60;99.20;;;;;;5073812;28;20044;-61
2021/05/02 02:24:18;;;;;;;7.50;3.42;;;6.70;99.20;;;;;;5077529;28;20056;-62
2021/05/02 02:26:55;;;;;;;10.27;4.13;;;6.70;99.10;;;;;;5087590;28;20032;-62
2021/05/02 02:29:22;;;;;;;8.68;3.60;;;6.70;99.00;;;;;;5076960;28;20323;-62
2021/05/02 02:31:50;;;;;;;10.90;4.45;;;6.70;99.00;;;;;;5085464;28;20127;-61
2021/05/02 02:34:18;;;;;;;10.40;3.88;;;6.70;99.00;;;;;;5072299;28;20036;-61
2021/05/02 02:36:44;;;;;;;12.02;3.92;;;6.70;98.80;;;;;;5087927;28;20123;-62
2021/05/02 02:39:10;;;;;;;11.60;4.10;;;6.70;99.00;;;;;;5071682;28;20044;-62
2021/05/02 02:41:42;;;;;;;8.75;4.15;;;6.70;98.40;;;;;;5086693;28;20398;-62
2021/05/02 02:44:10;;;;;;;10.43;3.42;;;6.70;98.50;;;;;;5076502;28;20425;-62
2021/05/02 02:46:46;;;;;;;6.03;3.05;;;6.70;98.40;;;;;;5088506;28;20043;-62
2021/05/02 02:49:13;;;;;;;7.82;2.95;;;6.70;98.20;;;;;;5072467;28;20044;-62
2021/05/02 02:51:41;;;;;;;11.10;3.03;;;6.70;97.80;;;;;;5080942;28;20476;-62
2021/05/02 02:54:10;;;;;;;9.30;3.03;;;6.70;97.60;;;;;;5075763;28;20054;-62
2021/05/02 02:56:41;;;;;;;6.45;2.17;;;6.70;97.70;;;;;;5090903;28;20052;-62
2021/05/02 02:59:14;;;;;;;5.40;2.45;;;6.70;97.90;;;;;;5076824;28;20032;-62
2021/05/02 03:01:45;;;;;;;7.97;3.17;;;6.70;97.80;;;;;;5085459;28;20142;-62
2021/05/02 03:04:15;;;;;;;6.40;2.53;;;6.70;97.90;;;;;;5084138;28;20071;-61
2021/05/02 03:06:41;;;;;;;7.38;2.72;;;6.70;97.80;;;;;;5087309;28;20109;-61
2021/05/02 03:09:07;;;;;;;7.20;2.17;;;6.70;97.50;;;;;;5082132;28;20066;-61
2021/05/02 03:11:33;;;;;;;5.65;1.83;;;6.60;97.20;;;;;;5083685;28;20038;-61
2021/05/02 03:13:59;;;;;;;10.25;2.47;;;6.60;96.90;;;;;;5078788;28;20096;-61
2021/05/02 03:16:29;;;;;;;7.43;2.17;;;6.60;96.90;;;;;;5089162;28;20359;-61
2021/05/02 03:19:13;;;;;;;6.85;2.25;;;6.60;96.30;;;;;;5082901;28;20106;-61
2021/05/02 03:21:58;;;;;;;4.25;1.48;;;6.60;95.40;;;;;;5085907;28;20039;-61
2021/05/02 03:24:30;;;;;;;;;;;6.60;95.40;;;;;;5077281;28;20040;-61
2021/05/02 03:27:21;;;;;;;6.53;1.88;;;6.60;94.90;;;;;;5089870;28;19923;-61
2021/05/02 03:29:48;;;;;;;9.43;2.00;;;6.50;94.80;;;;;;5076049;28;20048;-61
2021/05/02 03:32:15;;;;;;;6.50;2.17;;;6.50;94.80;;;;;;5075542;28;20045;-61
2021/05/02 03:34:42;;;;;;;9.30;2.80;;;6.60;95.10;;;;;;5073639;28;20439;-61
2021/05/02 03:37:32;;;;;;;4.35;1.70;;;6.50;95.10;;;;;;5092667;27;20071;-61
2021/05/02 03:39:59;;;;;;;7.18;1.80;;;6.50;95.00;;;;;;5077698;28;20040;-61
2021/05/02 03:42:26;;;;;;;6.03;1.70;;;6.50;94.80;;;;;;5081915;28;20461;-61
2021/05/02 03:44:52;;;;;;;7.32;1.92;;;6.40;94.90;;;;;;5084043;28;20051;-61
2021/05/02 03:47:17;;;;;;;6.63;1.80;;;6.40;95.00;;;;;;5079432;28;20052;-62
2021/05/02 03:49:43;;;;;;;6.25;1.80;;;6.40;94.70;;;;;;5080318;28;20519;-62
2021/05/02 03:52:13;;;;;;;7.00;2.08;;;6.30;94.80;;;;;;5074045;28;20062;-62
2021/05/02 03:54:39;;;;;;;9.38;2.50;;;6.20;94.40;;;;;;5081043;28;20074;-62
2021/05/02 03:57:05;;;;;;;7.53;1.75;;;6.10;94.20;;;;;;5077436;28;20036;-62
2021/05/02 03:59:30;;;;;;;7.95;1.70;;;6.00;94.40;;;;;;5081574;28;20411;-61
2021/05/02 04:02:01;;;;;;;8.57;1.77;;;5.90;94.30;;;;;;5081762;28;20036;-61
2021/05/02 04:04:36;;;;;;;7.20;1.92;;;5.80;94.30;;;;;;5082883;28;20501;-61
2021/05/02 04:07:10;;;;;;;5.03;2.30;;;5.80;94.20;;;;;;5078624;28;20543;-61
2021/05/02 04:09:38;;;;;;;4.57;1.50;;;5.70;94.50;;;;;;5080552;28;20044;-62
2021/05/02 04:12:05;;;;;;;3.78;1.75;;;5.60;94.60;;;;;;5078063;28;20029;-61
2021/05/02 04:14:31;;;;;;;7.75;1.88;;;5.60;94.70;;;;;;5086848;28;20089;-61
2021/05/02 04:16:57;;;;;;;3.92;1.55;;;5.50;94.70;;;;;;5074083;28;20040;-62
2021/05/02 04:19:24;;;;;;;9.27;1.85;;;5.50;94.90;;;;;;5080084;28;20039;-62
2021/05/02 04:21:51;;;;;;;5.20;1.80;;;5.40;95.00;;;;;;5083096;28;20032;-62
2021/05/02 04:24:17;;;;;;;7.38;1.90;;;5.30;95.00;;;;;;5080462;28;20056;-62
2021/05/02 04:26:44;;;;;;;8.55;1.83;;;5.30;95.10;;;;;;5078982;28;20059;-61
2021/05/02 04:29:10;;;;;;;6.90;2.10;;;5.30;95.10;;;;;;5080855;28;20504;-61
2021/05/02 04:31:36;;;;;;;6.70;2.10;;;5.30;95.20;;;;;;5087260;28;20111;-61
2021/05/02 04:34:03;;;;;;;5.40;2.30;;;5.30;95.30;;;;;;5070761;28;20039;-61
2021/05/02 04:36:29;;;;;;;6.35;2.30;;;5.30;95.30;;;;;;5083194;28;20047;-61
2021/05/02 04:38:55;;;;;;;5.32;1.90;;;5.30;95.40;;;;;;5074883;28;20122;-61
2021/05/02 04:41:21;;;;;;;6.88;2.13;;;5.20;95.40;;;;;;5078740;28;20055;-61
2021/05/02 04:43:47;;;;;;;6.53;2.45;;;5.20;95.50;;;;;;5078212;28;20039;-62
2021/05/02 04:46:13;;;;;;;5.22;2.15;;;5.20;95.60;;;;;;5079466;28;20453;-61
2021/05/02 04:48:41;;;;;;;7.43;2.67;;;5.20;95.60;;;;;;5072592;28;20487;-61
2021/05/02 04:51:07;;;;;;;6.45;1.88;;;5.20;95.70;;;;;;5079309;28;20040;-61
2021/05/02 04:53:33;;;;;;;4.82;2.38;;;5.20;95.80;;;;;;5074403;28;20036;-62
2021/05/02 04:55:59;;;;;;;7.22;2.30;;;5.20;96.00;;;;;;5080590;28;20097;-62
2021/05/02 04:58:25;;;;;;;6.82;2.70;;;5.20;96.10;;;;;;5074641;28;20039;-61
2021/05/02 05:00:51;;;;;;;6.97;2.20;;;5.30;96.20;;;;;;5083068;28;20039;-61
2021/05/02 05:03:17;;;;;;;6.45;2.28;;;5.30;96.20;;;;;;5070995;28;20949;-61
2021/05/02 05:05:44;;;;;;;6.38;2.28;;;5.30;96.20;;;;;;5085654;28;20051;-61
2021/05/02 05:08:10;;;;;;;6.63;2.15;;;5.30;96.10;;;;;;5081330;28;20024;-61
2021/05/02 05:10:36;;;;;;;6.25;2.53;;;5.30;96.10;;;;;;5074967;28;20036;-61
2021/05/02 05:13:02;;;;;;;6.75;2.55;;;5.20;96.10;;;;;;5078264;28;20114;-61
2021/05/02 05:15:28;;;;;;;8.25;2.40;;;5.20;96.10;;;;;;5076482;28;20047;-61
2021/05/02 05:17:54;;;;;;;5.10;2.28;;;5.10;96.20;;;;;;5081614;28;20044;-61
2021/05/02 05:20:21;;;;;;;4.43;2.10;;;5.10;96.20;;;;;;5075047;28;20032;-61
2021/05/02 05:22:47;;;;;;;9.05;2.80;;;5.10;96.30;;;;;;5078058;28;20040;-61
2021/05/02 05:25:13;;;;;;;5.20;2.38;;;5.10;96.40;;;;;;5073120;28;20051;-61
2021/05/02 05:27:39;;;;;;;8.95;2.47;;;5.10;96.80;;;;;;5074815;28;20048;-61
2021/05/02 05:30:06;;;;;;;6.90;2.13;;;5.30;96.80;;;;;;5075529;28;20054;-61
2021/05/02 05:32:32;;;;;;;6.10;2.58;;;5.50;96.50;;;;;;5080154;28;20082;-61
2021/05/02 05:34:58;;;;;;;8.40;2.92;;;5.70;96.60;;;;;;5074128;28;20511;-61
2021/05/02 05:37:24;;;;;;;7.50;2.45;;;6.00;96.80;;;;;;5084374;28;20043;-61
2021/05/02 05:39:51;;;;;;;5.07;1.90;;;6.40;96.70;;;;;;5071980;28;20037;-61
2021/05/02 05:42:16;;;;;;;5.05;2.22;;;6.60;95.80;;;;;;5077741;28;20498;-61
2021/05/02 05:44:42;;;;;;;4.55;2.17;;;6.70;95.70;;;;;;5075309;28;20051;-61
2021/05/02 05:47:08;;;;;;;4.95;2.25;;;6.80;95.20;;;;;;5080006;28;20049;-61
2021/05/02 05:49:35;;;;;;;6.07;2.88;;;6.80;95.00;;;;;;5082061;28;20028;-61
2021/05/02 05:52:00;;;;;;;6.95;2.40;;;6.70;94.70;;;;;;5074097;28;20040;-61
2021/05/02 05:54:26;;;;;;;10.90;2.30;;;6.70;94.80;;;;;;5076709;28;20299;-61
2021/05/02 05:56:52;;;;;;;7.70;2.95;;;6.70;95.00;;;;;;5073948;28;20040;-61
2021/05/02 05:59:18;;;;;;;9.98;2.78;;;6.70;95.10;;;;;;5082902;28;20368;-61
2021/05/02 06:01:43;;;;;;;6.70;2.30;;;6.80;95.50;;;;;;5075346;28;20028;-61
2021/05/02 06:04:10;;;;;;;8.23;2.58;;;6.80;94.90;;;;;;5079773;28;20051;-61
2021/05/02 06:06:36;;;;;;;8.40;2.72;;;6.90;95.10;;;;;;5067988;28;20025;-61
2021/05/02 06:09:07;;;;;;;7.10;2.22;;;6.90;94.90;;;;;;5077972;28;20040;-61
2021/05/02 06:11:33;;;;;;;6.65;2.05;;;6.90;94.70;;;;;;5074755;28;20108;-61
2021/05/02 06:13:59;;;;;;;5.40;2.10;;;6.90;94.50;;;;;;5079753;28;20111;-61
2021/05/02 06:16:26;;;;;;;6.43;2.10;;;6.90;94.10;;;;;;5076551;28;20067;-61
2021/05/02 06:18:53;;;;;;;5.63;2.05;;;7.00;94.20;;;;;;5088296;28;20124;-61
2021/05/02 06:21:20;;;;;;;4.13;1.77;;;7.10;94.20;;;;;;5072328;28;20116;-61
2021/05/02 06:23:47;;;;;;;3.80;1.67;;;7.20;94.10;;;;;;5081926;28;20395;-62
2021/05/02 06:26:14;;;;;;;5.20;1.85;;;7.30;93.80;;;;;;5080033;28;20214;-62
2021/05/02 06:28:42;;;;;;;5.97;1.73;;;7.60;93.90;;;;;;5084859;28;20044;-62
2021/05/02 06:31:08;;;;;;;6.78;2.05;;;7.90;93.50;;;;;;5080805;28;20598;-62
2021/05/02 06:33:37;;;;;;;4.82;1.90;;;8.10;93.00;;;;;;5080059;28;20046;-62
2021/05/02 06:36:04;;;;;;;7.72;2.00;;;8.10;92.20;;;;;;5081885;28;20475;-62
2021/05/02 06:38:30;;;;;;;5.38;1.90;;;8.10;91.90;;;;;;5075710;28;20046;-61
2021/05/02 06:40:56;;;;;;;5.53;2.10;;;7.80;91.40;;;;;;5085424;28;20043;-61
2021/05/02 06:43:22;;;;;;;6.82;1.75;;;7.60;92.70;;;;;;5078321;28;20036;-61
2021/05/02 06:45:49;;;;;;;7.22;2.67;;;7.50;93.50;;;;;;5085581;28;20045;-61
2021/05/02 06:48:14;;;;;;;3.38;1.58;;;7.40;93.70;;;;;;5079890;28;20479;-61
2021/05/02 06:50:40;;;;;;;5.97;1.70;;;7.30;94.10;;;;;;5081315;28;20263;-61
2021/05/02 06:53:06;;;;;;;6.18;1.92;;;7.40;94.40;;;;;;5079509;28;20071;-61
2021/05/02 06:55:32;;;;;;;6.05;2.08;;;7.40;94.50;;;;;;5085844;28;20379;-61
2021/05/02 06:58:00;;;;;;;5.82;2.17;;;7.50;94.30;;;;;;5072906;28;20354;-62
2021/05/02 07:00:28;;;;;;;5.95;2.35;;;7.60;94.40;;;;;;5082483;28;20498;-61
2021/05/02 07:02:54;;;;;;;6.65;2.38;;;7.80;94.60;;;;;;5081568;27;20044;-61
2021/05/02 07:05:20;;;;;;;3.33;1.90;;;7.90;94.60;;;;;;5085545;28;20047;-61
2021/05/02 07:07:47;;;;;;;8.45;1.67;;;7.90;93.10;;;;;;5084883;28;20077;-61
2021/05/02 07:10:13;;;;;;;5.32;2.17;;;7.90;93.00;;;;;;5084934;28;20048;-61
2021/05/02 07:12:39;;;;;;;5.47;2.17;;;7.90;92.60;;;;;;5081096;28;20071;-61
2021/05/02 07:15:05;;;;;;;4.53;1.88;;;7.90;92.30;;;;;;5081920;28;20039;-61
2021/05/02 07:17:31;;;;;;;5.82;2.10;;;7.80;92.20;;;;;;5093775;28;20484;-61
2021/05/02 07:19:58;;;;;;;4.78;1.95;;;7.80;92.40;;;;;;5080536;28;20036;-61
2021/05/02 07:22:26;;;;;;;5.20;2.30;;;7.80;92.00;;;;;;5084098;28;20729;-61
2021/05/02 07:24:53;;;;;;;5.88;2.45;;;7.90;92.30;;;;;;5084424;28;20066;-62
2021/05/02 07:27:19;;;;;;;4.25;1.73;;;7.90;92.10;;;;;;5083411;28;20125;-62
2021/05/02 07:29:46;;;;;;;4.95;1.60;;;8.00;92.50;;;;;;5077619;28;20052;-62
2021/05/02 07:32:11;;;;;;;5.53;1.85;;;8.00;90.80;;;;;;5084441;28;20070;-61
2021/05/02 07:34:38;;;;;;;6.32;1.52;;;8.00;90.90;;;;;;5079189;28;20488;-62
2021/05/02 07:37:04;;;;;;;3.47;1.48;;;8.00;91.40;;;;;;5083788;28;20044;-62
2021/05/02 07:39:29;;;;;;;4.63;1.50;;;8.00;91.10;;;;;;5080544;28;20086;-62
2021/05/02 07:41:55;;;;;;;3.40;1.63;;;8.10;90.80;;;;;;5087712;28;20045;-62
2021/05/02 07:44:21;;;;;;;4.50;1.80;;;8.40;90.50;;;;;;5081526;28;20052;-62
2021/05/02 07:46:47;;;;;;;5.47;1.58;;;8.80;90.30;;;;;;5085438;28;20044;-62
2021/05/02 07:49:13;;;;;;;5.35;2.35;;;9.10;88.00;;;;;;5083232;28;20480;-62
2021/05/02 07:51:39;;;;;;;6.20;1.50;;;9.40;88.10;;;;;;5078011;28;20441;-62
2021/05/02 07:54:05;;;;;;;5.25;1.77;;;9.60;87.00;;;;;;5082478;28;20048;-62
2021/05/02 07:56:31;;;;;;;2.33;0.95;;;9.90;86.60;;;;;;5075540;28;20040;-62
2021/05/02 07:58:57;;;;;;;6.60;1.27;;;10.10;87.10;;;;;;5091921;28;20051;-62
2021/05/02 08:01:23;;;;;;;7.72;1.80;;;10.10;81.80;;;;;;5083862;28;20036;-62
2021/05/02 08:03:49;;;;;;;4.53;0.93;;;9.90;80.80;;;;;;5081748;28;21340;-62
2021/05/02 08:06:15;;;;;;;7.68;1.48;;;9.70;81.30;;;;;;5074273;28;20357;-62
2021/05/02 08:08:40;;;;;;;4.55;1.20;;;9.50;81.70;;;;;;5084709;28;20047;-62
2021/05/02 08:11:06;;;;;;;4.30;1.13;;;9.30;84.20;;;;;;5074084;28;20055;-62
2021/05/02 08:13:32;;;;;;;4.18;1.25;;;9.20;83.80;;;;;;5083871;28;20077;-62
2021/05/02 08:15:58;;;;;;;3.35;1.58;;;9.10;86.60;;;;;;5073221;28;20427;-62
2021/05/02 08:18:24;;;;;;;5.90;1.40;;;9.10;87.90;;;;;;5086946;28;20038;-62
2021/05/02 08:20:50;;;;;;;4.88;1.35;;;8.90;87.50;;;;;;5072370;28;20027;-62
2021/05/02 08:23:15;;;;;;;5.55;1.63;;;8.90;88.50;;;;;;5077991;28;20039;-62
2021/05/02 08:25:41;;;;;;;4.82;1.10;;;8.90;89.60;;;;;;5090297;28;20081;-62
2021/05/02 08:28:07;;;;;;;6.72;1.50;;;8.90;87.20;;;;;;5079645;28;20129;-62
2021/05/02 08:30:34;;;;;;;5.40;1.48;;;9.30;85.10;;;;;;5081195;28;20504;-62
2021/05/02 08:33:00;;;;;;;6.05;1.30;;;10.20;83.70;;;;;;5079748;28;20033;-62
2021/05/02 08:35:26;;;;;;;5.40;1.13;;;11.40;80.80;;;;;;5079347;28;20403;-62
2021/05/02 08:37:52;;;;;;;5.13;0.85;;;12.10;73.50;;;;;;5075322;28;20048;-63
2021/05/02 08:40:18;;;;;;;4.60;0.77;;;12.50;69.90;;;;;;5082291;28;20044;-63
2021/05/02 08:42:44;;;;;;;5.75;2.53;;;12.40;63.50;;;;;;5082037;28;20046;-62
2021/05/02 08:45:10;;;;;;;6.85;1.70;;;12.00;65.70;;;;;;5077427;28;20090;-63
2021/05/02 08:47:37;;;;;;;4.63;1.00;;;12.10;66.20;;;;;;5072508;28;20102;-63
2021/05/02 08:50:08;;;;;;;3.50;0.85;;;12.70;68.40;;;;;;5082779;28;20059;-64
2021/05/02 08:52:36;;;;;;;5.78;1.30;;;13.60;69.30;;;;;;5079402;28;20040;-63
2021/05/02 08:55:03;;;;;;;2.72;1.00;;;13.20;62.20;;;;;;5078823;28;20051;-63
2021/05/02 08:57:30;;;;;;;3.63;0.73;;;13.20;63.50;;;;;;5081121;28;20505;-63
2021/05/02 08:59:56;;;;;;;5.45;1.08;;;12.70;64.10;;;;;;5082204;28;20085;-62
2021/05/02 09:02:27;;;;;;;6.43;1.05;;;12.20;63.30;;;;;;5078083;28;20032;-62
2021/05/02 09:04:54;;;;;;;3.38;0.98;;;11.90;64.50;;;;;;5091653;28;20127;-62
2021/05/02 09:07:20;;;;;;;3.05;0.60;;;12.30;68.20;;;;;;5076957;28;20044;-62
2021/05/02 09:09:48;;;;;;;2.88;0.90;;;13.10;69.30;;;;;;5074925;28;20032;-63
2021/05/02 09:12:22;;;;;;;2.53;0.73;;;13.80;70.60;;;;;;5080849;28;20039;-61
2021/05/02 09:14:48;;;;;;;3.63;0.93;;;13.50;62.10;;;;;;5079108;28;20117;-62
2021/05/02 09:17:27;;;;;;;5.55;0.90;;;12.90;64.10;;;;;;5081335;28;20052;-61
2021/05/02 09:19:55;;;;;;;4.57;1.13;;;12.50;63.80;;;;;;5072724;28;20046;-62
2021/05/02 09:22:22;;;;;;;6.65;2.75;;;13.10;66.40;;;;;;5083960;28;20437;-61
2021/05/02 09:25:00;;;;;;;6.78;3.67;;;13.70;66.10;;;;;;5073769;28;20060;-61
2021/05/02 09:27:26;;;;;;;6.00;1.08;;;13.70;62.20;;;;;;5081249;28;20476;-61
2021/05/02 09:29:52;;;;;;;3.78;0.80;;;13.80;59.30;;;;;;5072642;28;20499;-63
2021/05/02 09:32:22;;;;;;;4.40;1.00;;;13.50;59.80;;;;;;5079595;28;20043;-61
2021/05/02 09:34:52;;;;;;;3.53;0.90;;;12.70;58.10;;;;;;5074593;28;20036;-61
2021/05/02 09:37:21;;;;;;;3.72;0.70;;;11.90;59.40;;;;;;5078766;28;20048;-61
2021/05/02 09:39:52;;;;;;;3.10;0.70;;;11.50;63.50;;;;;;5072716;28;20033;-60
2021/05/02 09:42:35;;;;;;;4.30;0.77;;;11.10;61.20;;;;;;5076515;28;20069;-60
2021/05/02 09:45:05;;;;;;;2.75;0.73;;;10.90;62.90;;;;;;5074208;28;20411;-61
2021/05/02 09:47:33;;;;;;;2.90;0.50;;;11.20;64.60;;;;;;5078795;28;20044;-61
2021/05/02 09:50:02;;;;;;;3.38;0.65;;;12.00;61.60;;;;;;5072508;28;20048;-61
2021/05/02 09:52:40;;;;;;;4.18;0.80;;;12.80;60.20;;;;;;5080137;28;20033;-61
2021/05/02 09:55:32;;;;;;;3.20;1.08;;;13.50;53.90;;;;;;5074409;28;20048;-62
2021/05/02 09:58:10;;;;;;;2.25;0.90;;;13.70;55.20;;;;;;5076681;28;20041;-61
2021/05/02 10:00:49;;;;;;;2.15;0.60;;;13.30;53.80;;;;;;5068372;28;20075;-61
2021/05/02 10:03:20;;;;;;;3.10;0.50;;;12.70;54.60;;;;;;5078788;28;20036;-61
2021/05/02 10:06:00;;;;;;;4.43;0.90;;;12.30;56.70;;;;;;5071440;28;20055;-62
2021/05/02 10:08:29;;;;;;;3.38;0.80;;;12.70;56.90;;;;;;5077798;28;20479;-61
2021/05/02 10:10:57;;;;;;;2.38;0.50;;;13.50;58.20;;;;;;5072271;28;20048;-61
2021/05/02 10:13:25;;;;;;;3.65;0.70;;;13.70;55.60;;;;;;5089456;28;20555;-61
2021/05/02 10:15:51;;;;;;;2.00;0.50;;;13.70;59.20;;;;;;5071344;28;20090;-62
2021/05/02 10:18:17;;;;;;;1.92;0.57;;;14.00;58.70;;;;;;5078476;28;20475;-62
2021/05/02 10:20:48;;;;;;;4.05;0.60;;;14.30;58.70;;;;;;5075922;28;20052;-61
2021/05/02 10:23:14;;;;;;;3.47;0.60;;;14.60;57.70;;;;;;5080796;28;20044;-61
2021/05/02 10:25:45;;;;;;;3.72;0.77;;;14.00;53.70;;;;;;5066387;28;20411;-61
2021/05/02 10:28:28;;;;;;;2.33;0.73;;;13.30;55.30;;;;;;5077389;28;20049;-61
2021/05/02 10:30:58;;;;;;;7.00;2.17;;;12.40;55.20;;;;;;5072297;28;20115;-61
2021/05/02 10:33:42;;;;;;;3.00;0.55;;;11.80;59.10;;;;;;5079463;28;20048;-61
2021/05/02 10:36:18;;;;;;;2.92;0.90;;;11.30;62.10;;;;;;5076270;28;20052;-61
2021/05/02 10:38:48;;;;;;;6.32;1.13;;;10.80;63.70;;;;;;5078821;28;20040;-60
2021/05/02 10:41:24;;;;;;;2.15;0.60;;;10.40;64.70;;;;;;5068915;28;20375;-60
2021/05/02 10:43:51;;;;;;;5.00;0.85;;;10.20;66.20;;;;;;5075330;28;20392;-61
2021/05/02 10:46:42;;;;;;;4.60;1.00;;;10.00;67.70;;;;;;5073073;28;20097;-61
2021/05/02 10:49:31;;;;;;;3.75;1.05;;;10.10;69.90;;;;;;5078870;28;20322;-61
2021/05/02 10:52:17;;;;;;;3.65;0.63;;;10.10;70.20;;;;;;5076911;28;20037;-61
2021/05/02 10:54:44;;;;;;;2.03;0.70;;;10.10;67.00;;;;;;5077733;28;20033;-61
2021/05/02 10:57:34;;;;;;;3.88;0.60;;;10.30;66.10;;;;;;5072665;28;20044;-61
2021/05/02 11:00:07;;;;;;;5.25;0.90;;;10.60;59.90;;;;;;5077812;28;20056;-61
2021/05/02 11:02:38;;;;;;;4.97;1.30;;;11.00;61.60;;;;;;5071415;28;20043;-61
2021/05/02 11:05:05;;;;;;;4.07;1.00;;;11.00;62.50;;;;;;5080233;28;20043;-61
2021/05/02 11:07:42;;;;;;;3.60;1.10;;;10.90;63.00;;;;;;5071983;28;20111;-61
2021/05/02 11:10:10;;;;;;;5.03;0.73;;;10.60;62.60;;;;;;5076815;28;20044;-61
2021/05/02 11:12:37;;;;;;;4.22;0.75;;;10.50;65.10;;;;;;5070030;28;20453;-61
2021/05/02 11:15:25;;;;;;;3.47;0.90;;;10.40;64.60;;;;;;5077269;28;20063;-61
2021/05/02 11:17:53;;;;;;;3.80;0.90;;;10.30;65.40;;;;;;5073641;28;20040;-61
2021/05/02 11:20:47;;;;;;;2.72;0.68;;;10.30;66.60;;;;;;5080044;28;20131;-61
2021/05/02 11:23:14;;;;;;;2.20;0.70;;;10.40;66.60;;;;;;5078550;28;20051;-61
2021/05/02 11:25:43;;;;;;;4.05;1.00;;;10.40;65.10;;;;;;5078406;28;20049;-61
2021/05/02 11:28:10;;;;;;;3.58;1.00;;;10.50;65.20;;;;;;5077050;28;21007;-61
2021/05/02 11:30:46;;;;;;;4.22;0.73;;;10.60;64.50;;;;;;5081855;28;20035;-61
2021/05/02 11:33:23;;;;;;;4.07;1.10;;;11.00;65.70;;;;;;5078269;28;20041;-61
2021/05/02 11:35:53;;;;;;;3.72;0.88;;;11.50;65.00;;;;;;5078764;28;20032;-61
2021/05/02 11:38:21;;;;;;;4.90;0.90;;;11.50;59.90;;;;;;5076150;28;20068;-61
2021/05/02 11:40:56;;;;;;;3.83;0.80;;;11.40;60.10;;;;;;5081142;28;20503;-61
2021/05/02 11:43:27;;;;;;;3.13;0.98;;;11.20;60.90;;;;;;5085004;28;20081;-61
2021/05/02 11:46:00;;;;;;;3.58;0.80;;;11.20;61.60;;;;;;5082466;28;20499;-61
2021/05/02 11:48:31;;;;;;;1.83;0.52;;;11.20;62.10;;;;;;5081564;28;20432;-61
2021/05/02 11:51:00;;;;;;;3.85;0.95;;;11.40;60.00;;;;;;5075532;28;20051;-61
2021/05/02 11:53:42;;;;;;;2.17;0.65;;;11.40;60.20;;;;;;5078620;28;20036;-61
2021/05/02 11:56:20;;;;;;;2.90;0.82;;;11.60;60.30;;;;;;5075351;28;20047;-61
2021/05/02 11:58:47;;;;;;;2.53;0.93;;;11.40;60.80;;;;;;5080803;28;20589;-61
2021/05/02 12:01:24;;;;;;;3.70;0.98;;;11.30;60.10;;;;;;5074283;28;20046;-61
2021/05/02 12:03:50;;;;;;;5.65;1.10;;;11.40;63.40;;;;;;5080322;28;20500;-62
2021/05/02 12:06:28;;;;;;;4.13;0.80;;;11.30;60.60;;;;;;5074894;28;20044;-61
2021/05/02 12:08:55;;;;;;;2.97;0.52;;;11.10;62.90;;;;;;5077419;28;20471;-61
2021/05/02 12:11:22;;;;;;;2.28;0.90;;;11.00;64.50;;;;;;5073296;28;20392;-61
2021/05/02 12:13:54;;;;;;;5.47;0.98;;;11.00;65.00;;;;;;5093627;28;20040;-61
2021/05/02 12:16:25;;;;;;;3.25;0.82;;;11.00;66.10;;;;;;5072023;28;20071;-61
2021/05/02 12:18:52;;;;;;;2.40;0.80;;;11.10;64.60;;;;;;5082091;28;20039;-61
2021/05/02 12:21:27;;;;;;;2.55;0.52;;;11.40;64.40;;;;;;5077312;28;20040;-61
2021/05/02 12:24:04;;;;;;;;;;;11.50;61.90;;;;;;5083671;28;20046;-61
2021/05/02 12:26:31;;;;;;;3.08;0.77;;;11.60;59.30;;;;;;5076513;28;19967;-61
2021/05/02 12:29:28;;;;;;;3.95;1.10;;;11.60;60.20;;;;;;5086045;28;20067;-61
2021/05/02 12:32:01;;;;;;;3.42;0.70;;;11.50;59.00;;;;;;5079668;28;20047;-62
2021/05/02 12:34:32;;;;;;;4.35;1.10;;;10.80;61.00;;;;;;5083425;28;20098;-61
2021/05/02 12:37:12;;;;;;;4.93;0.82;;;10.50;63.10;;;;;;5076033;28;20052;-61
2021/05/02 12:39:39;;;;;;;3.22;1.00;;;10.10;64.00;;;;;;5084171;28;20441;-61
2021/05/02 12:42:05;;;;;;;4.03;0.98;;;10.00;65.60;;;;;;5079635;28;20048;-61
2021/05/02 12:44:34;;;;;;;3.78;0.90;;;10.00;67.20;;;;;;5086757;28;20047;-61
2021/05/02 12:47:02;;;;;;;4.05;1.05;;;10.00;67.70;;;;;;5074612;28;20707;-61
2021/05/02 12:49:30;;;;;;;5.30;0.88;;;10.00;68.30;;;;;;5079321;28;20064;-61
2021/05/02 12:52:03;;;;;;;3.00;0.73;;;10.10;68.40;;;;;;5074100;28;20091;-61
2021/05/02 12:54:31;;;;;;;4.90;1.17;;;10.40;67.30;;;;;;5084287;28;20058;-61
2021/05/02 12:57:10;;;;;;;2.65;0.70;;;10.60;65.20;;;;;;5075505;28;20048;-62
2021/05/02 13:02:14;;;;;;;4.95;0.90;;;10.50;65.00;;;;;;5076810;28;20432;-61
2021/05/02 13:04:56;;;;;;;3.83;1.20;;;10.50;66.80;;;;;;5078427;28;20063;-61